Flight Track Log - Related Links

Times and Time Zones

All times are in EDT time to prevent confusion due to time zone crossing. See the AAL1071 flight status page for this flight to view local times or setup timezone preferences in your user account.

Time Position Orientation Groundspeed Altitude Reporting Facility
EDT Latitude Longitude Course Direction KTS MPH feet Rate Location/Type
Sat 06:12:35 AM 39.8667 -75.2833 180° South 171 197 800  Level Philadelphia TRACON
Sat 06:13:11 AM 39.8333 -75.3167 218° Southwest 206 237 1,700 1,500 Climbing Philadelphia TRACON
Sat 06:14:00 AM 39.6143 -75.3000 180° South  Level FlightAware Approximate
Sat 06:14:11 AM 39.7833 -75.3667 218° Southwest 268 308 3,200  Level Philadelphia TRACON
Sat 06:15:00 AM 39.4822 -75.3226 194° South  Level FlightAware Approximate
Sat 06:15:11 AM 39.7167 -75.4000 201° Southwest 282 325 5,800  Level Philadelphia TRACON
Sat 06:16:00 AM 39.3500 -75.3426 185° South  Level FlightAware Approximate
Sat 06:17:00 AM 39.2192 -75.3667 180° South  Level FlightAware Approximate
Sat 06:17:02 AM 39.5697 -75.3922 178° South 309 356 10,100  Level Washington Center
Sat 06:17:59 AM 39.4758 -75.3900 179° South 315 362 11,300 1,800 Climbing Washington Center
Sat 06:19:02 AM 39.3694 -75.3847 178° South 353 406 13,700 2,459 Climbing Washington Center
Sat 06:20:01 AM 39.2569 -75.3825 179° South 387 445 16,300 2,564 Climbing Washington Center
Sat 06:20:59 AM 39.1403 -75.3908 183° South 410 472 18,700 2,521 Climbing Washington Center
Sat 06:22:00 AM 39.0047 -75.4100 186° South 439 505 21,300 2,150 Climbing Washington Center
Sat 06:22:59 AM 38.8778 -75.4289 187° South 452 520 23,000 1,750 Climbing Washington Center
Sat 06:24:00 AM 38.7486 -75.4533 188° South 473 544 24,800 1,672 Climbing Washington Center
Sat 06:25:01 AM 38.6150 -75.4881 191° South 486 559 26,400 1,426 Climbing Washington Center
Sat 06:26:02 AM 38.4881 -75.5572 203° Southwest 491 565 27,700 1,412 Climbing Washington Center
Sat 06:27:00 AM 38.3525 -75.6208 200° South 505 581 29,200 1,487 Climbing Washington Center
Sat 06:27:59 AM 38.2211 -75.6869 202° Southwest 510 587 30,600 1,400 Climbing Washington Center
Sat 06:29:00 AM 38.0833 -75.7528 201° Southwest 516 594 32,000 1,230 Climbing Washington Center
Sat 06:30:01 AM 37.9831 -75.8158 206° Southwest 516 594 33,100 1,190 Climbing Washington Center
Sat 06:31:01 AM 37.8142 -75.8914 199° South 522 601 34,400 1,780 Climbing Washington Center
Sat 06:31:59 AM 37.6844 -75.9619 203° Southwest 527 606 36,600 1,765 Climbing Washington Center
Sat 06:33:00 AM 37.5592 -76.0292 203° Southwest 507 583 37,900 639 Climbing Washington Center
Sat 06:34:01 AM 37.4381 -76.0889 201° Southwest 496 571 37,900 50 Level Washington Center
Sat 06:34:59 AM 37.3106 -76.1481 200° South 491 565 38,000 50 Climbing Washington Center
Sat 06:36:00 AM 37.1808 -76.2069 200° South 491 565 38,000  Level Washington Center
Sat 06:37:01 AM 37.0533 -76.2686 201° Southwest 491 565 38,000  Level Washington Center
Sat 06:38:01 AM 36.9256 -76.3350 203° Southwest 491 565 38,000  Level Washington Center
Sat 06:39:00 AM 36.7958 -76.3961 201° Southwest 491 565 38,000  Level Washington Center
Sat 06:39:59 AM 36.6703 -76.4619 203° Southwest 491 565 38,000  Level Washington Center
Sat 06:41:00 AM 36.5383 -76.5253 201° Southwest 497 572 38,000 -50 Level Washington Center
Sat 06:42:00 AM 36.4086 -76.5881 201° Southwest 497 572 37,900  Descending Washington Center
Sat 06:43:02 AM 36.2786 -76.6508 201° Southwest 497 572 38,000 50 Climbing Washington Center
Sat 06:44:00 AM 36.1467 -76.7108 200° South 502 578 38,000 -50 Level Washington Center
Sat 06:45:01 AM 36.0272 -76.7683 201° Southwest 510 587 37,900  Descending Washington Center
Sat 06:46:01 AM 35.8950 -76.8306 201° Southwest 515 593 38,000  Climbing Washington Center
Sat 06:47:02 AM 35.7589 -76.8872 199° South 515 593 37,900  Descending Washington Center
Sat 06:48:00 AM 35.6142 -76.9436 198° South 509 586 38,000 50 Climbing Washington Center
Sat 06:49:01 AM 35.4739 -76.9922 196° South 504 580 38,000  Level Washington Center
Sat 06:50:01 AM 35.3378 -77.0458 198° South 509 586 38,000  Level Washington Center
Sat 06:50:59 AM 35.1994 -77.0942 196° South 515 593 38,000  Level Washington Center
Sat 06:52:00 AM 35.0589 -77.1475 197° South 521 600 38,000  Level Washington Center
Sat 06:52:59 AM 34.9225 -77.1956 196° South 514 592 38,000  Level Washington Center
Sat 06:54:00 AM 34.8008 -77.2464 199° South 514 592 38,000  Level Washington Center
Sat 06:55:00 AM 34.6606 -77.2964 196° South 520 598 38,000  Level Washington Center
Sat 06:56:00 AM 34.5219 -77.3464 197° South 520 598 38,000 -30 Level Washington Center
Sat 06:58:23 AM 34.1911 -77.4653 197° South 517 595 37,900  Descending Jacksonville Center
Sat 06:59:23 AM 34.0350 -77.5200 196° South 524 603 38,000 50 Climbing Jacksonville Center
Sat 07:00:23 AM 33.9014 -77.5683 197° South 520 598 38,000  Level Jacksonville Center
Sat 07:01:23 AM 33.7678 -77.6164 197° South 506 582 38,000  Level Jacksonville Center
Sat 07:02:23 AM 33.6319 -77.6619 196° South 512 589 38,000  Level Jacksonville Center
Sat 07:03:23 AM 33.4983 -77.7097 197° South 507 583 38,000 -50 Level Jacksonville Center
Sat 07:04:23 AM 33.3628 -77.7600 197° South 507 583 37,900  Descending Jacksonville Center
Sat 07:05:23 AM 33.2331 -77.8069 197° South 507 583 38,000  Climbing Jacksonville Center
Sat 07:06:23 AM 33.0972 -77.8544 196° South 507 583 37,900  Descending Jacksonville Center
Sat 07:07:23 AM 32.9636 -77.9017 197° South 507 583 38,000  Climbing Jacksonville Center
Sat 07:08:23 AM 32.8275 -77.9461 195° South 507 583 37,900  Descending Jacksonville Center
Sat 07:09:23 AM 32.6936 -77.9931 196° South 507 583 38,000  Climbing Jacksonville Center
Sat 07:10:23 AM 32.5600 -78.0397 196° South 507 583 37,900  Descending Jacksonville Center
Sat 07:11:23 AM 32.4261 -78.0861 196° South 507 583 38,000  Climbing Jacksonville Center
Sat 07:12:23 AM 32.2919 -78.1325 196° South 507 583 37,900  Descending Jacksonville Center
Sat 07:13:23 AM 32.1600 -78.1761 196° South 507 583 38,000 50 Climbing Jacksonville Center
Sat 07:14:23 AM 32.0303 -78.2222 197° South 496 571 38,000 -50 Level Jacksonville Center
Sat 07:15:23 AM 31.9006 -78.2703 197° South 490 564 37,900 -50 Descending Jacksonville Center
Sat 07:16:23 AM 31.7728 -78.3133 196° South 490 564 37,900 50 Level Jacksonville Center
Sat 07:17:23 AM 31.6450 -78.3586 197° South 485 558 38,000 50 Climbing Jacksonville Center
Sat 07:18:23 AM 31.5150 -78.4017 196° South 493 567 38,000  Level Jacksonville Center
Sat 07:19:23 AM 31.3889 -78.4392 194° South 475 547 38,000 -50 Level Jacksonville Center
Sat 07:20:23 AM 31.2572 -78.4917 199° South 484 557 37,900  Descending Jacksonville Center
Sat 07:21:23 AM 31.1311 -78.5292 194° South 484 557 38,000 50 Climbing Jacksonville Center
Sat 07:22:23 AM 31.0033 -78.5739 197° South 479 551 38,000  Level Jacksonville Center
Sat 07:23:23 AM 30.8897 -78.6128 196° South 474 545 38,000  Level Jacksonville Center
Sat 07:24:23 AM 30.7639 -78.6547 196° South 479 551 38,000 -43 Level Jacksonville Center
Sat 07:25:41 AM 30.5831 -78.7056 194° South 473 544 37,900 -43 Descending Miami Center
Sat 07:26:41 AM 30.4558 -78.7275 188° South 473 544 37,900  Level Miami Center
Sat 07:27:41 AM 30.3261 -78.7492 188° South 473 544 37,900  Level Miami Center
Sat 07:28:42 AM 30.1986 -78.7733 189° South 479 551 37,900 50 Level Miami Center
Sat 07:29:41 AM 30.0672 -78.7925 187° South 473 544 38,000 50 Climbing Miami Center
Sat 07:30:41 AM 29.9542 -78.8169 191° South 455 524 38,000  Level Miami Center
Sat 07:31:42 AM 29.8267 -78.8361 187° South 454 522 38,000  Level Miami Center
Sat 07:32:41 AM 29.7094 -78.8675 193° South 459 528 38,000  Level Miami Center
Sat 07:33:41 AM 29.5800 -78.8794 185° South 466 536 38,000  Level Miami Center
Sat 07:34:41 AM 29.4444 -78.8911 184° South 470 541 38,000  Level Miami Center
Sat 07:35:41 AM 29.3169 -78.9103 187° South 475 547 38,000  Level Miami Center
Sat 07:36:41 AM 29.1747 -78.9289 187° South 470 541 38,000  Level Miami Center
Sat 07:37:41 AM 29.0450 -78.9478 187° South 470 541 38,000  Level Miami Center
Sat 07:38:41 AM 28.9194 -78.9786 192° South 465 535 38,000  Level Miami Center
Sat 07:39:41 AM 28.7917 -79.0117 193° South 465 535 38,000  Level Miami Center
Sat 07:40:41 AM 28.6658 -79.0425 192° South 471 542 38,000  Level Miami Center
Sat 07:41:42 AM 28.5403 -79.0731 192° South 471 542 38,000  Level Miami Center
Sat 07:42:41 AM 28.4103 -79.1036 192° South 465 535 38,000  Level Miami Center
Sat 07:43:41 AM 28.2847 -79.1342 192° South 470 541 38,000 -100 Level Miami Center
Sat 07:44:41 AM 28.1611 -79.1622 191° South 470 541 37,800 -600 Descending Miami Center
Sat 07:45:41 AM 28.0353 -79.1925 192° South 470 541 36,800 -942 Descending Miami Center
Sat 07:46:42 AM 27.9075 -79.2206 191° South 470 541 35,900 -942 Descending Miami Center
Sat 07:47:42 AM 27.7986 -79.2464 192° South 457 526 34,900 -1,000 Descending Miami Center
Sat 07:48:42 AM 27.6519 -79.2808 192° South 473 544 33,900 -1,800 Descending Miami Center
Sat 07:49:42 AM 27.5219 -79.3133 193° South 479 551 31,300 -2,700 Descending Miami Center
Sat 07:50:42 AM 27.3897 -79.3433 191° South 479 551 28,500 -2,550 Descending Miami Center
Sat 07:51:42 AM 27.2703 -79.3711 192° South 484 557 26,200 -1,850 Descending Miami Center
Sat 07:52:42 AM 27.1503 -79.4150 198° South 471 542 24,800 -1,750 Descending Miami Center
Sat 07:53:42 AM 27.0242 -79.4731 202° Southwest 457 526 22,700 -2,100 Descending Miami Center
Sat 07:54:42 AM 26.9125 -79.5242 202° Southwest 447 514 20,600 -2,050 Descending Miami Center
Sat 07:55:42 AM 26.8050 -79.5753 203° Southwest 428 493 18,600 -2,048 Descending Miami Center
Sat 07:56:48 AM 26.6869 -79.6306 203° Southwest 393 452 16,300 -2,000 Descending Miami Center
Sat 07:57:42 AM 26.6133 -79.6636 202° Southwest 397 457 14,600 -1,632 Descending Miami Center
Sat 07:58:42 AM 26.5100 -79.7100 202° Southwest 376 433 13,200 -800 Descending Miami Center
Sat 07:59:42 AM 26.4419 -79.7686 218° Southwest 319 367 13,000 -160 Descending Miami Center
Sat 07:59:57 AM 26.4289 -79.7939 240° Southwest 301 346 13,000  Level Miami Center
Sat 08:00:42 AM 26.3964 -79.8511 238° Southwest 314 361 13,000 -393 Level Miami Center
Sat 08:00:58 AM 26.3833 -79.8761 240° Southwest 302 348 12,600 -1,400 Descending Miami Center
Sat 08:01:42 AM 26.3492 -79.9147 225° Southwest 314 361 11,600 -1,500 Descending Miami Center
Sat 08:01:58 AM 26.3194 -79.9372 214° Southwest 310 357 11,100 -1,300 Descending Miami Center
Sat 08:02:42 AM 26.2753 -79.9569 202° Southwest 298 343 10,300 -1,082 Descending Miami Center
Sat 08:02:59 AM 26.2436 -79.9722 203° Southwest 293 337 10,000 -300 Descending Miami Center
Sat 08:03:42 AM 26.2014 -79.9850 195° South 290 334 10,000  Level Miami Center
Sat 08:04:00 AM 26.1678 -79.9958 196° South 273 314 10,000 -712 Level Miami Center
Sat 08:04:41 AM 26.1281 -80.0039 190° South 285 328 9,300 -984 Descending Miami Center
Sat 08:05:01 AM 26.0944 -80.0122 193° South 264 304 9,000 -787 Descending Miami Center
Sat 08:05:42 AM 26.0567 -80.0114 179° South 271 312 8,500 -984 Descending Miami Center
Sat 08:06:02 AM 26.0253 -80.0150 186° South 239 275 8,000 -1,900 Descending Miami Center
Sat 08:06:42 AM 25.9856 -80.0186 185° South 257 296 6,600 -2,361 Descending Miami Center
Sat 08:07:03 AM 25.9583 -80.0272 196° South 232 267 5,600 -1,976 Descending Miami Center
Sat 08:08:04 AM 25.8953 -80.0464 195° South 230 265 3,900 -1,672 Descending Miami Center

Login

Don't have an account? Register now (free) for customized features, flight alerts, and more!